createdAt,value
2023-05-22T00:02:10.357Z,102173.66
2023-05-22T00:04:37.180Z,102170.97
2023-05-22T00:07:03.953Z,102118.19
2023-05-22T00:09:30.689Z,102161.06
2023-05-22T00:11:57.410Z,102161.88
2023-05-22T00:14:24.058Z,102160.03
2023-05-22T00:16:50.778Z,102139.44
2023-05-22T00:19:23.462Z,102152.97
2023-05-22T00:21:54.982Z,102157.28
2023-05-22T00:24:21.809Z,102149.31
2023-05-22T00:26:48.462Z,102135.72
2023-05-22T00:29:15.221Z,102143.00
2023-05-22T00:31:44.281Z,102150.91
2023-05-22T00:34:11.153Z,102149.09
2023-05-22T00:36:40.245Z,102146.31
2023-05-22T00:39:06.885Z,102146.31
2023-05-22T00:41:36.556Z,102139.13
2023-05-22T00:44:03.231Z,102144.34
2023-05-22T00:46:29.997Z,102144.31
2023-05-22T00:48:56.897Z,102141.63
2023-05-22T00:51:24.636Z,102145.13
2023-05-22T00:53:52.092Z,102121.00
2023-05-22T00:56:19.554Z,102131.75
2023-05-22T00:58:46.384Z,102135.31
2023-05-22T01:01:13.413Z,102107.41
2023-05-22T01:03:45.070Z,102129.84
2023-05-22T01:06:13.769Z,102130.78
2023-05-22T01:08:41.507Z,102128.78
2023-05-22T01:11:18.190Z,102127.94
2023-05-22T01:14:11.030Z,102123.41
2023-05-22T01:16:51.370Z,102123.06
2023-05-22T01:19:35.142Z,102136.25
2023-05-22T01:22:58.523Z,102136.06
2023-05-22T01:25:45.412Z,102132.47
2023-05-22T01:28:15.134Z,102128.84
2023-05-22T01:31:02.133Z,102137.41
2023-05-22T01:33:33.562Z,102129.44
2023-05-22T01:36:05.947Z,102124.00
2023-05-22T01:38:33.070Z,102128.41
2023-05-22T01:41:04.494Z,102124.00
2023-05-22T01:43:31.299Z,102119.53
2023-05-22T01:46:03.204Z,102122.16
2023-05-22T01:48:30.175Z,102109.78
2023-05-22T01:51:05.519Z,102109.09
2023-05-22T01:53:56.835Z,102101.28
2023-05-22T01:56:32.580Z,102104.78
2023-05-22T01:59:04.502Z,102100.41
2023-05-22T02:01:37.978Z,102105.53
2023-05-22T02:04:08.235Z,102102.09
2023-05-22T02:06:35.115Z,102099.41
2023-05-22T02:09:03.202Z,102090.19
2023-05-22T02:11:33.131Z,102098.38
2023-05-22T02:14:03.029Z,102100.84
2023-05-22T02:16:30.415Z,102088.41
2023-05-22T02:19:06.722Z,102074.16
2023-05-22T02:21:38.998Z,102092.06
2023-05-22T02:24:05.852Z,102077.06
2023-05-22T02:26:32.791Z,102079.91
2023-05-22T02:28:59.548Z,102074.69
2023-05-22T02:31:26.545Z,102080.06
2023-05-22T02:33:53.239Z,102072.22
2023-05-22T02:36:19.982Z,102074.75
2023-05-22T02:38:46.694Z,102078.09
2023-05-22T02:41:13.724Z,102077.97
2023-05-22T02:43:42.690Z,102074.38
2023-05-22T02:46:09.539Z,102076.75
2023-05-22T02:48:36.347Z,102084.31
2023-05-22T02:51:03.154Z,102073.53
2023-05-22T02:53:33.667Z,102081.47
2023-05-22T02:56:01.294Z,102083.97
2023-05-22T02:58:30.398Z,102090.75
2023-05-22T03:00:57.157Z,102081.88
2023-05-22T03:03:25.220Z,102079.81
2023-05-22T03:05:58.386Z,102071.00
2023-05-22T03:08:28.376Z,102081.38
2023-05-22T03:10:58.916Z,102077.63
2023-05-22T03:13:25.718Z,102071.38
2023-05-22T03:15:52.559Z,102073.78
2023-05-22T03:18:19.313Z,102064.97
2023-05-22T03:20:46.186Z,102071.91
2023-05-22T03:23:18.058Z,102067.38
2023-05-22T03:25:44.700Z,102062.00
2023-05-22T03:28:15.003Z,102062.75
2023-05-22T03:30:44.053Z,102051.97
2023-05-22T03:33:11.806Z,102063.34
2023-05-22T03:35:38.566Z,102038.16
2023-05-22T03:38:05.270Z,102056.84
2023-05-22T03:40:31.910Z,102061.97
2023-05-22T03:42:58.520Z,102054.84
2023-05-22T03:45:25.172Z,102047.09
2023-05-22T03:47:52.131Z,102047.63
2023-05-22T03:50:18.846Z,102053.97
2023-05-22T03:52:47.938Z,102059.97
2023-05-22T03:55:14.698Z,102030.41
2023-05-22T03:57:41.400Z,102052.81
2023-05-22T04:00:12.660Z,102054.56
2023-05-22T04:02:45.314Z,102050.31
2023-05-22T04:05:12.387Z,102052.91
2023-05-22T04:07:39.082Z,102055.53
2023-05-22T04:10:11.142Z,102014.41
2023-05-22T04:12:37.733Z,102046.38
2023-05-22T04:15:04.730Z,102062.53
2023-05-22T04:17:37.695Z,102060.81
2023-05-22T04:20:05.372Z,102064.31
2023-05-22T04:22:32.163Z,102062.44
2023-05-22T04:24:58.906Z,102032.13
2023-05-22T04:27:29.801Z,102036.81
2023-05-22T04:29:56.466Z,102062.91
2023-05-22T04:32:23.718Z,102022.69
2023-05-22T04:34:53.121Z,102050.50
2023-05-22T04:37:22.077Z,102064.06
2023-05-22T04:39:48.867Z,102053.72
2023-05-22T04:42:16.159Z,102042.63
2023-05-22T04:44:43.799Z,102036.69
2023-05-22T04:47:14.609Z,102051.88
2023-05-22T04:49:42.603Z,102044.09
2023-05-22T04:52:11.741Z,102053.38
2023-05-22T04:54:39.019Z,102049.16
2023-05-22T04:57:06.025Z,102009.34
2023-05-22T04:59:38.028Z,102051.63
2023-05-22T05:02:05.837Z,102047.47
2023-05-22T05:04:34.997Z,102045.91
2023-05-22T05:07:02.635Z,102048.06
2023-05-22T05:09:31.987Z,102046.28
2023-05-22T05:11:59.199Z,102055.28
2023-05-22T05:14:28.650Z,102065.22
2023-05-22T05:16:59.913Z,102048.75
2023-05-22T05:19:26.727Z,102067.47
2023-05-22T05:21:53.560Z,102052.44
2023-05-22T05:24:22.708Z,102050.84
2023-05-22T05:26:50.634Z,102067.94
2023-05-22T05:29:17.849Z,102036.78
2023-05-22T05:31:44.584Z,102057.50
2023-05-22T05:34:11.308Z,102064.69
2023-05-22T05:36:41.215Z,102069.91
2023-05-22T05:39:10.166Z,102064.69
2023-05-22T05:41:39.343Z,102072.63
2023-05-22T05:44:06.074Z,102064.78
2023-05-22T05:46:32.884Z,102070.97
2023-05-22T05:48:59.654Z,102073.59
2023-05-22T05:51:26.601Z,102072.69
2023-05-22T05:53:53.277Z,102064.88
2023-05-22T05:56:20.066Z,102080.13
2023-05-22T05:58:49.696Z,102071.66
2023-05-22T06:01:16.724Z,102029.28
2023-05-22T06:03:46.083Z,102070.50
2023-05-22T06:06:12.836Z,102068.19
2023-05-22T06:08:42.315Z,102068.44
2023-05-22T06:11:11.410Z,102056.47
2023-05-22T06:13:38.115Z,102066.63
2023-05-22T06:16:06.745Z,102079.19
2023-05-22T06:18:33.747Z,102082.88
2023-05-22T06:21:00.420Z,102084.72
2023-05-22T06:23:27.257Z,102088.34
2023-05-22T06:25:56.432Z,102084.94
2023-05-22T06:28:23.357Z,102095.63
2023-05-22T06:30:50.315Z,102090.56
2023-05-22T06:33:19.369Z,102095.28
2023-05-22T06:35:46.142Z,102095.53
2023-05-22T06:38:12.860Z,102102.06
2023-05-22T06:40:39.713Z,102107.69
2023-05-22T06:43:06.469Z,102112.25
2023-05-22T06:45:33.113Z,102098.16
2023-05-22T06:47:59.903Z,102103.75
2023-05-22T06:50:26.628Z,102120.75
2023-05-22T06:52:53.459Z,102106.00
2023-05-22T06:55:20.138Z,102104.38
2023-05-22T06:57:49.301Z,102126.84
2023-05-22T07:00:16.643Z,102128.78
2023-05-22T07:02:50.615Z,102133.28
2023-05-22T07:05:19.901Z,102141.28
2023-05-22T07:07:46.798Z,102143.97
2023-05-22T07:10:13.607Z,102146.75
2023-05-22T07:12:40.602Z,102121.72
2023-05-22T07:15:12.333Z,102151.22
2023-05-22T07:17:41.893Z,102149.72
2023-05-22T07:20:10.777Z,102148.16
2023-05-22T07:22:37.853Z,102147.44
2023-05-22T07:25:05.113Z,102145.03
2023-05-22T07:27:31.763Z,102153.19
2023-05-22T07:29:58.558Z,102159.59
2023-05-22T07:32:25.362Z,102168.69
2023-05-22T07:34:52.582Z,102162.81
2023-05-22T07:37:19.294Z,102163.16
2023-05-22T07:39:46.911Z,102162.66
2023-05-22T07:42:16.557Z,102151.69
2023-05-22T07:44:45.606Z,102166.31
2023-05-22T07:47:12.453Z,102171.13
2023-05-22T07:49:39.167Z,102166.66
2023-05-22T07:52:06.479Z,102156.81
2023-05-22T07:54:35.481Z,102158.28
2023-05-22T07:57:03.720Z,102161.59
2023-05-22T07:59:30.500Z,102173.13
2023-05-22T08:01:58.424Z,102169.41
2023-05-22T08:04:26.261Z,102166.06
2023-05-22T08:06:55.747Z,102170.53
2023-05-22T08:09:22.470Z,102176.63
2023-05-22T08:11:49.185Z,102171.34
2023-05-22T08:14:16.046Z,102173.28
2023-05-22T08:16:47.352Z,102170.97
2023-05-22T08:19:14.501Z,102179.19
2023-05-22T08:21:44.325Z,102176.03
2023-05-22T08:24:13.352Z,102172.78
2023-05-22T08:26:43.818Z,102164.91
2023-05-22T08:29:11.627Z,102177.41
2023-05-22T08:31:38.352Z,102177.59
2023-05-22T08:34:10.862Z,102182.34
2023-05-22T08:36:37.605Z,102177.56
2023-05-22T08:39:04.489Z,102187.72
2023-05-22T08:41:31.182Z,102183.06
2023-05-22T08:43:58.030Z,102189.84
2023-05-22T08:46:29.223Z,102184.13
2023-05-22T08:48:58.030Z,102183.72
2023-05-22T08:51:34.469Z,102177.34
2023-05-22T08:54:05.133Z,102185.25
2023-05-22T08:56:35.427Z,102175.41
2023-05-22T08:59:11.559Z,102144.78
2023-05-22T09:01:38.487Z,102178.50
2023-05-22T09:04:07.400Z,102173.16
2023-05-22T09:06:34.359Z,102173.13
2023-05-22T09:09:01.623Z,102158.09
2023-05-22T09:11:28.318Z,102167.81
2023-05-22T09:14:07.332Z,102167.78
2023-05-22T09:16:46.707Z,102188.13
2023-05-22T09:19:14.933Z,102185.47
2023-05-22T09:21:43.235Z,102185.53
2023-05-22T09:24:11.068Z,102182.91
2023-05-22T09:26:41.466Z,102180.25
2023-05-22T09:29:13.055Z,102193.53
2023-05-22T09:31:43.850Z,102193.47
2023-05-22T09:34:14.262Z,102187.06
2023-05-22T09:36:41.912Z,102198.34
2023-05-22T09:39:10.987Z,102196.16
2023-05-22T09:41:40.903Z,102200.16
2023-05-22T09:44:14.013Z,102190.84
2023-05-22T09:46:42.522Z,102196.44
2023-05-22T09:49:09.387Z,102199.50
2023-05-22T09:51:39.797Z,102196.53
2023-05-22T09:54:08.487Z,102194.56
2023-05-22T09:56:39.850Z,102194.31
2023-05-22T09:59:09.640Z,102180.81
2023-05-22T10:01:39.053Z,102162.16
2023-05-22T10:04:11.074Z,102187.84
2023-05-22T10:06:41.005Z,102186.94
2023-05-22T10:09:18.282Z,102185.13
2023-05-22T10:11:50.237Z,102182.50
2023-05-22T10:14:17.006Z,102175.69
2023-05-22T10:16:45.397Z,102149.25
2023-05-22T10:19:13.678Z,102176.00
2023-05-22T10:21:42.311Z,102179.56
2023-05-22T10:24:10.192Z,102176.13
2023-05-22T10:26:37.875Z,102178.69
2023-05-22T10:29:38.498Z,102176.84
2023-05-22T10:32:28.757Z,102187.38
2023-05-22T10:35:20.600Z,102194.38
2023-05-22T10:38:21.381Z,102191.41
2023-05-22T10:40:48.967Z,102191.25
2023-05-22T10:43:15.791Z,102193.16
2023-05-22T10:45:46.877Z,102183.50
2023-05-22T10:48:14.037Z,102194.28
2023-05-22T10:50:51.464Z,102192.72
2023-05-22T10:53:25.816Z,102191.09
2023-05-22T10:55:53.647Z,102190.22
2023-05-22T10:58:30.872Z,102196.47
2023-05-22T11:01:27.278Z,102206.03
2023-05-22T11:04:02.249Z,102193.75
2023-05-22T11:06:41.121Z,102201.72
2023-05-22T11:09:29.638Z,102184.19
2023-05-22T11:12:25.198Z,102189.69
2023-05-22T11:14:53.690Z,102187.94
2023-05-22T11:17:24.334Z,102185.38
2023-05-22T11:20:01.342Z,102177.53
2023-05-22T11:22:36.814Z,102181.97
2023-05-22T11:25:07.232Z,102180.16
2023-05-22T11:27:34.749Z,102178.34
2023-05-22T11:30:01.934Z,102152.75
2023-05-22T11:32:28.968Z,102176.88
2023-05-22T11:34:59.809Z,102171.63
2023-05-22T11:37:29.091Z,102158.50
2023-05-22T11:39:57.668Z,102165.69
2023-05-22T11:42:26.640Z,102173.72
2023-05-22T11:44:55.581Z,102172.78
2023-05-22T11:47:25.324Z,102178.84
2023-05-22T11:49:52.264Z,102174.25
2023-05-22T11:52:19.125Z,102183.81
2023-05-22T11:54:47.268Z,102187.09
2023-05-22T11:57:15.413Z,102186.97
2023-05-22T11:59:48.802Z,102177.19
2023-05-22T12:02:19.752Z,102179.75
2023-05-22T12:04:46.973Z,102170.84
2023-05-22T12:07:16.598Z,102169.16
2023-05-22T12:09:43.308Z,102156.00
2023-05-22T12:12:11.712Z,102165.72
2023-05-22T12:14:47.075Z,102167.41
2023-05-22T12:17:17.489Z,102154.00
2023-05-22T12:19:44.915Z,102169.16
2023-05-22T12:22:12.016Z,102176.19
2023-05-22T12:24:48.773Z,102178.78
2023-05-22T12:27:17.740Z,102177.84
2023-05-22T12:29:46.667Z,102176.13
2023-05-22T12:32:15.778Z,102163.88
2023-05-22T12:34:44.802Z,102136.44
2023-05-22T12:37:28.546Z,102163.22
2023-05-22T12:40:02.224Z,102154.41
2023-05-22T12:42:29.177Z,102161.38
2023-05-22T12:44:58.259Z,102156.97
2023-05-22T12:47:25.415Z,102166.75
2023-05-22T12:49:54.909Z,102161.47
2023-05-22T12:52:21.628Z,102165.78
2023-05-22T12:54:51.120Z,102140.94
2023-05-22T12:57:17.799Z,102171.88
2023-05-22T12:59:44.479Z,102165.72
2023-05-22T13:02:11.393Z,102175.44
2023-05-22T13:04:38.194Z,102174.59
2023-05-22T13:07:05.058Z,102151.59
2023-05-22T13:09:31.836Z,102154.31
2023-05-22T13:12:00.910Z,102166.75
2023-05-22T13:14:27.590Z,102154.47
2023-05-22T13:16:54.292Z,102164.28
2023-05-22T13:19:21.102Z,102143.03
2023-05-22T13:21:47.795Z,102158.84
2023-05-22T13:24:14.526Z,102162.31
2023-05-22T13:26:43.535Z,102157.97
2023-05-22T13:29:10.243Z,102168.50
2023-05-22T13:31:37.647Z,102173.66
2023-05-22T13:34:05.246Z,102159.50
2023-05-22T13:36:32.647Z,102156.75
2023-05-22T13:38:59.667Z,102166.28
2023-05-22T13:41:26.535Z,102133.59
2023-05-22T13:43:53.323Z,102142.50
2023-05-22T13:46:21.943Z,102153.13
2023-05-22T13:48:48.923Z,102151.41
2023-05-22T13:51:15.802Z,102161.13
2023-05-22T13:53:42.539Z,102166.47
2023-05-22T13:56:11.671Z,102162.06
2023-05-22T13:58:38.335Z,102153.25
2023-05-22T14:01:05.140Z,102159.41
2023-05-22T14:03:31.983Z,102146.94
2023-05-22T14:05:58.803Z,102149.56
2023-05-22T14:08:25.571Z,102148.75
2023-05-22T14:10:54.750Z,102157.53
2023-05-22T14:13:21.497Z,102126.56
2023-05-22T14:15:50.866Z,102130.00
2023-05-22T14:18:20.051Z,102098.97
2023-05-22T14:20:46.913Z,102146.13
2023-05-22T14:23:15.449Z,102148.81
2023-05-22T14:25:44.398Z,102137.44
2023-05-22T14:28:16.528Z,102155.00
2023-05-22T14:30:46.050Z,102139.16
2023-05-22T14:33:12.792Z,102144.44
2023-05-22T14:35:39.666Z,102122.28
2023-05-22T14:38:08.536Z,102134.00
2023-05-22T14:40:37.690Z,102137.50
2023-05-22T14:43:04.425Z,102149.63
2023-05-22T14:45:31.186Z,102149.59
2023-05-22T14:48:00.258Z,102160.19
2023-05-22T14:50:27.975Z,102161.13
2023-05-22T14:52:54.745Z,102163.91
2023-05-22T14:55:27.770Z,102165.72
2023-05-22T14:57:54.828Z,102157.03
2023-05-22T15:00:21.593Z,102156.22
2023-05-22T15:02:48.340Z,102154.56
2023-05-22T15:05:15.189Z,102130.63
2023-05-22T15:07:45.309Z,102133.25
2023-05-22T15:10:13.055Z,102162.53
2023-05-22T15:12:39.967Z,102158.19
2023-05-22T15:15:07.176Z,102152.94
2023-05-22T15:17:40.814Z,102162.81
2023-05-22T15:20:09.737Z,102154.22
2023-05-22T15:22:36.558Z,102156.94
2023-05-22T15:25:11.837Z,102159.66
2023-05-22T15:27:39.681Z,102165.88
2023-05-22T15:30:10.117Z,102161.50
2023-05-22T15:32:37.610Z,102153.44
2023-05-22T15:35:05.800Z,102155.22
2023-05-22T15:37:33.955Z,102175.53
2023-05-22T15:40:02.018Z,102175.47
2023-05-22T15:42:29.465Z,102171.84
2023-05-22T15:44:56.841Z,102167.44
2023-05-22T15:47:23.565Z,102168.34
2023-05-22T15:49:50.371Z,102159.66
2023-05-22T15:52:19.576Z,102163.25
2023-05-22T15:54:46.274Z,102161.44
2023-05-22T15:57:13.072Z,102175.56
2023-05-22T15:59:39.718Z,102186.13
2023-05-22T16:02:06.442Z,102174.63
2023-05-22T16:04:35.585Z,102171.06
2023-05-22T16:07:02.236Z,102187.00
2023-05-22T16:09:32.776Z,102169.31
2023-05-22T16:12:02.568Z,102188.78
2023-05-22T16:14:29.765Z,102179.91
2023-05-22T16:17:01.463Z,102184.31
2023-05-22T16:19:28.383Z,102196.63
2023-05-22T16:21:55.222Z,102193.09
2023-05-22T16:24:21.914Z,102168.25
2023-05-22T16:26:53.287Z,102169.19
2023-05-22T16:29:21.098Z,102184.31
2023-05-22T16:31:52.168Z,102194.06
2023-05-22T16:34:21.383Z,102195.84
2023-05-22T16:36:50.416Z,102185.28
2023-05-22T16:39:17.093Z,102160.53
2023-05-22T16:41:43.964Z,102178.34
2023-05-22T16:44:10.611Z,102173.91
2023-05-22T16:46:39.703Z,102174.75
2023-05-22T16:49:06.416Z,102177.44
2023-05-22T16:51:33.258Z,102163.28
2023-05-22T16:54:00.068Z,102171.28
2023-05-22T16:56:27.533Z,102172.97
2023-05-22T16:58:54.274Z,102172.03
2023-05-22T17:01:23.658Z,102181.66
2023-05-22T17:03:54.017Z,102184.25
2023-05-22T17:06:21.155Z,102174.53
2023-05-22T17:08:47.940Z,102183.38
2023-05-22T17:11:14.619Z,102184.25
2023-05-22T17:13:43.620Z,102190.34
2023-05-22T17:16:10.275Z,102183.25
2023-05-22T17:18:37.913Z,102157.44
2023-05-22T17:21:04.750Z,102152.16
2023-05-22T17:23:31.399Z,102181.50
2023-05-22T17:26:03.012Z,102177.09
2023-05-22T17:28:29.714Z,102180.59
2023-05-22T17:30:56.577Z,102173.53
2023-05-22T17:33:26.386Z,102175.28
2023-05-22T17:35:53.265Z,102193.72
2023-05-22T17:38:21.957Z,102177.03
2023-05-22T17:40:52.018Z,102190.22
2023-05-22T17:43:21.532Z,102185.69
2023-05-22T17:45:51.396Z,102191.78
2023-05-22T17:48:27.380Z,102192.66
2023-05-22T17:50:56.679Z,102184.63
2023-05-22T17:53:23.433Z,102202.22
2023-05-22T17:55:52.365Z,102198.63
2023-05-22T17:58:20.696Z,102203.88
2023-05-22T18:00:48.811Z,102203.78
2023-05-22T18:03:21.536Z,102209.84
2023-05-22T18:05:50.023Z,102205.41
2023-05-22T18:08:17.910Z,102222.06
2023-05-22T18:10:44.720Z,102212.16
2023-05-22T18:13:11.454Z,102224.53
2023-05-22T18:15:38.184Z,102238.66
2023-05-22T18:18:05.292Z,102235.97
2023-05-22T18:20:33.543Z,102233.28
2023-05-22T18:23:01.021Z,102230.50
2023-05-22T18:25:27.967Z,102236.53
2023-05-22T18:27:57.072Z,102239.13
2023-05-22T18:30:23.744Z,102252.28
2023-05-22T18:32:52.854Z,102255.66
2023-05-22T18:35:19.606Z,102252.97
2023-05-22T18:37:48.840Z,102242.34
2023-05-22T18:40:15.885Z,102255.56
2023-05-22T18:42:43.559Z,102259.03
2023-05-22T18:45:12.003Z,102250.06
2023-05-22T18:47:38.920Z,102251.81
2023-05-22T18:50:06.166Z,102261.38
2023-05-22T18:52:32.815Z,102258.63
2023-05-22T18:54:59.653Z,102272.63
2023-05-22T18:57:26.288Z,102268.09
2023-05-22T18:59:52.977Z,102278.63
2023-05-22T19:02:24.784Z,102278.53
2023-05-22T19:04:51.692Z,102286.38
2023-05-22T19:07:21.395Z,102263.25
2023-05-22T19:09:49.733Z,102275.69
2023-05-22T19:12:16.548Z,102265.72
2023-05-22T19:14:43.407Z,102278.16
2023-05-22T19:17:10.335Z,102294.91
2023-05-22T19:19:37.337Z,102295.66
2023-05-22T19:22:04.162Z,102279.50
2023-05-22T19:24:33.108Z,102309.50
2023-05-22T19:26:59.838Z,102311.16
2023-05-22T19:29:26.671Z,102318.00
2023-05-22T19:31:56.233Z,102325.88
2023-05-22T19:34:22.939Z,102318.75
2023-05-22T19:36:51.747Z,102328.34
2023-05-22T19:39:21.001Z,102326.44
2023-05-22T19:41:47.789Z,102339.59
2023-05-22T19:44:14.564Z,102336.81
2023-05-22T19:46:43.574Z,102327.84
2023-05-22T19:49:12.979Z,102337.50
2023-05-22T19:51:39.697Z,102348.84
2023-05-22T19:54:06.619Z,102358.31
2023-05-22T19:56:35.064Z,102357.28
2023-05-22T19:59:01.833Z,102362.47
2023-05-22T20:01:28.899Z,102363.16
2023-05-22T20:03:56.271Z,102374.47
2023-05-22T20:06:23.342Z,102372.50
2023-05-22T20:08:50.152Z,102377.63
2023-05-22T20:11:19.513Z,102371.03
2023-05-22T20:13:46.403Z,102377.28
2023-05-22T20:16:17.703Z,102385.00
2023-05-22T20:18:44.923Z,102385.72
2023-05-22T20:21:11.579Z,102389.09
2023-05-22T20:23:40.814Z,102403.03
2023-05-22T20:26:10.234Z,102408.09
2023-05-22T20:28:36.905Z,102414.94
2023-05-22T20:31:06.165Z,102418.34
2023-05-22T20:33:33.105Z,102431.28
2023-05-22T20:36:01.322Z,102434.56
2023-05-22T20:38:34.865Z,102436.19
2023-05-22T20:41:08.159Z,102433.50
2023-05-22T20:43:36.377Z,102436.84
2023-05-22T20:46:03.276Z,102432.34
2023-05-22T20:48:32.601Z,102433.09
2023-05-22T20:50:59.252Z,102440.88
2023-05-22T20:53:26.106Z,102445.09
2023-05-22T20:55:53.386Z,102451.97
2023-05-22T20:58:20.234Z,102455.31
2023-05-22T21:00:50.211Z,102453.34
2023-05-22T21:03:17.768Z,102448.00
2023-05-22T21:05:44.512Z,102444.13
2023-05-22T21:08:13.762Z,102459.94
2023-05-22T21:10:42.781Z,102436.72
2023-05-22T21:13:09.499Z,102438.28
2023-05-22T21:15:36.308Z,102463.09
2023-05-22T21:18:08.298Z,102467.38
2023-05-22T21:20:39.921Z,102468.88
2023-05-22T21:23:06.863Z,102482.69
2023-05-22T21:25:33.689Z,102482.56
2023-05-22T21:28:01.871Z,102480.63
2023-05-22T21:30:28.544Z,102484.00
2023-05-22T21:32:57.594Z,102477.69
2023-05-22T21:35:27.252Z,102461.50
2023-05-22T21:37:56.475Z,102480.88
2023-05-22T21:40:23.304Z,102452.97
2023-05-22T21:42:49.977Z,102484.19
2023-05-22T21:45:19.258Z,102471.44
2023-05-22T21:47:46.071Z,102488.25
2023-05-22T21:50:15.471Z,102495.97
2023-05-22T21:52:42.147Z,102476.06
2023-05-22T21:55:09.169Z,102507.00
2023-05-22T21:57:36.445Z,102464.75
2023-05-22T22:00:03.622Z,102511.03
2023-05-22T22:02:30.306Z,102497.31
2023-05-22T22:04:59.240Z,102510.50
2023-05-22T22:07:26.164Z,102518.31
2023-05-22T22:09:52.859Z,102520.72
2023-05-22T22:12:19.604Z,102523.16
2023-05-22T22:14:48.515Z,102525.47
2023-05-22T22:17:16.887Z,102513.34
2023-05-22T22:19:44.485Z,102533.69
2023-05-22T22:22:12.568Z,102527.94
2023-05-22T22:24:39.465Z,102542.94
2023-05-22T22:27:08.432Z,102550.66
2023-05-22T22:29:37.455Z,102539.88
2023-05-22T22:32:04.337Z,102539.72
2023-05-22T22:34:31.200Z,102547.44
2023-05-22T22:36:57.931Z,102549.91
2023-05-22T22:39:27.098Z,102548.84
2023-05-22T22:41:56.040Z,102553.16
2023-05-22T22:44:22.732Z,102565.25
2023-05-22T22:46:49.735Z,102550.81
2023-05-22T22:49:21.819Z,102547.22
2023-05-22T22:51:49.374Z,102563.84
2023-05-22T22:54:18.270Z,102563.50
2023-05-22T22:56:46.950Z,102561.53
2023-05-22T22:59:13.676Z,102566.25
2023-05-22T23:01:40.466Z,102581.97
2023-05-22T23:04:07.207Z,102549.63
2023-05-22T23:06:34.686Z,102555.66
2023-05-22T23:09:03.249Z,102571.72
2023-05-22T23:11:37.706Z,102581.38
2023-05-22T23:14:07.484Z,102579.44
2023-05-22T23:16:41.529Z,102583.59
2023-05-22T23:19:09.490Z,102595.63
2023-05-22T23:21:36.603Z,102584.84
2023-05-22T23:24:04.665Z,102596.19
2023-05-22T23:26:31.931Z,102595.06
2023-05-22T23:29:01.663Z,102602.75
2023-05-22T23:31:31.894Z,102605.19
2023-05-22T23:34:01.256Z,102611.91
2023-05-22T23:36:29.224Z,102584.81
2023-05-22T23:38:58.086Z,102610.44
2023-05-22T23:41:27.695Z,102602.22
2023-05-22T23:43:54.427Z,102603.66
2023-05-22T23:46:24.647Z,102599.84
2023-05-22T23:48:51.680Z,102610.16
2023-05-22T23:51:20.946Z,102603.00
2023-05-22T23:53:47.674Z,102602.03
2023-05-22T23:56:14.335Z,102587.50
2023-05-22T23:58:41.013Z,102597.91
